Time;durP1;ratioP1;P1;durP2;ratioP2;P2;SDS_P1;SDS_P2;PMS_P1;PMS_P2;Temp;Humidity;BMP_temperature;BMP_pressure;BME280_temperature;BME280_humidity;BME280_pressure;Samples;Min_cycle;Max_cycle;Signal;HPM_P1;HPM_P2
2021/06/12 00:00:36;;;;;;;;;;;;;;;;;;5114070;28;19960;-93
2021/06/12 00:03:02;;;;;;;;;;;;;;;;;;5114309;28;19909;-94
2021/06/12 00:05:28;;;;;;;;;;;;;;;;;;5103189;28;19980;-94
2021/06/12 00:07:54;;;;;;;;;;;;;;;;;;5113725;28;19908;-95
2021/06/12 00:10:20;;;;;;;;;;;;;;;;;;5139490;27;19978;-94
2021/06/12 00:12:47;;;;;;;;;;;;;;;;;;5112999;28;19912;-93
2021/06/12 00:15:13;;;;;;;;;;;;;;;;;;5107777;28;19912;-94
2021/06/12 00:17:39;;;;;;;;;;;;;;;;;;5104305;28;19912;-94
2021/06/12 00:20:05;;;;;;;;;;;;;;;;;;5086225;28;19978;-94
2021/06/12 00:22:31;;;;;;;;;;;;;;;;;;5103875;28;19962;-94
2021/06/12 00:24:57;;;;;;;;;;;;;;;;;;5115191;28;19914;-93
2021/06/12 00:27:23;;;;;;;;;;;;;;;;;;5116111;28;19909;-93
2021/06/12 00:29:49;;;;;;;;;;;;;;;;;;5105701;28;19914;-94
2021/06/12 00:32:15;;;;;;;;;;;;;;;;;;5102642;28;19915;-94
2021/06/12 00:34:40;;;;;;;;;;;;;;;;;;5133724;27;19908;-94
2021/06/12 00:37:06;;;;;;;;;;;;;;;;;;5079084;28;19908;-93
2021/06/12 00:39:32;;;;;;;;;;;;;;;;;;5084244;28;19959;-93
2021/06/12 00:41:58;;;;;;;;;;;;;;;;;;5089954;28;19912;-94
2021/06/12 00:44:24;;;;;;;;;;;;;;;;;;5100440;28;19913;-94
2021/06/12 00:46:50;;;;;;;;;;;;;;;;;;5107552;28;19909;-95
2021/06/12 00:49:16;;;;;;;;;;;;;;;;;;5113111;28;19919;-95
2021/06/12 00:51:42;;;;;;;;;;;;;;;;;;5089344;28;19956;-94
2021/06/12 00:54:07;;;;;;;;;;;;;;;;;;5078360;28;19920;-93
2021/06/12 00:56:33;;;;;;;;;;;;;;;;;;5079579;28;19912;-95
2021/06/12 00:59:00;;;;;;;;;;;;;;;;;;5096010;28;19908;-94
2021/06/12 01:01:26;;;;;;;;;;;;;;;;;;5096126;28;19916;-95
2021/06/12 01:03:52;;;;;;;;;;;;;;;;;;5087623;28;19908;-94
2021/06/12 01:06:20;;;;;;;;;;;;;;;;;;5101346;28;19913;-95
2021/06/12 01:08:46;;;;;;;;;;;;;;;;;;5095676;28;19912;-94
2021/06/12 01:11:12;;;;;;;;;;;;;;;;;;5105803;28;19934;-94
2021/06/12 01:13:37;;;;;;;;;;;;;;;;;;5107966;28;19916;-94
2021/06/12 01:16:03;;;;;;;;;;;;;;;;;;5098297;28;20318;-94
2021/06/12 01:18:29;;;;;;;;;;;;;;;;;;5099199;28;19908;-95
2021/06/12 01:20:55;;;;;;;;;;;;;;;;;;5102627;28;19930;-93
2021/06/12 01:23:21;;;;;;;;;;;;;;;;;;5108516;28;19912;-94
2021/06/12 01:25:47;;;;;;;;;;;;;;;;;;5096977;28;20004;-93
2021/06/12 01:28:13;;;;;;;;;;;;;;;;;;5099640;28;19912;-94
2021/06/12 01:30:39;;;;;;;;;;;;;;;;;;5090884;28;20344;-94
2021/06/12 01:33:05;;;;;;;;;;;;;;;;;;5096870;28;19923;-93
2021/06/12 01:35:31;;;;;;;;;;;;;;;;;;5098979;28;19961;-92
2021/06/12 01:37:57;;;;;;;;;;;;;;;;;;5108774;28;19912;-93
2021/06/12 01:40:23;;;;;;;;;;;;;;;;;;5103320;28;19927;-94
2021/06/12 01:42:49;;;;;;;;;;;;;;;;;;5097375;28;19908;-94
2021/06/12 01:45:15;;;;;;;;;;;;;;;;;;5114754;28;19930;-94
2021/06/12 01:47:41;;;;;;;;;;;;;;;;;;5104634;28;19949;-93
2021/06/12 01:50:06;;;;;;;;;;;;;;;;;;5100699;28;19919;-94
2021/06/12 01:52:32;;;;;;;;;;;;;;;;;;5098161;28;20332;-94
2021/06/12 01:54:58;;;;;;;;;;;;;;;;;;5114930;28;19908;-93
2021/06/12 01:57:24;;;;;;;;;;;;;;;;;;5100900;28;19916;-93
2021/06/12 01:59:50;;;;;;;;;;;;;;;;;;5103054;28;19958;-94
2021/06/12 02:02:16;;;;;;;;;;;;;;;;;;5103346;28;20478;-93
2021/06/12 02:04:42;;;;;;;;;;;;;;;;;;5079997;28;19909;-93
2021/06/12 02:07:08;;;;;;;;;;;;;;;;;;5108909;28;19909;-94
2021/06/12 02:09:34;;;;;;;;;;;;;;;;;;5113160;28;19915;-94
2021/06/12 02:11:59;;;;;;;;;;;;;;;;;;5107910;28;19976;-94
2021/06/12 02:14:25;;;;;;;;;;;;;;;;;;5109071;28;19913;-93
2021/06/12 02:16:51;;;;;;;;;;;;;;;;;;5101600;28;20249;-93
2021/06/12 02:19:17;;;;;;;;;;;;;;;;;;5118803;28;19971;-94
2021/06/12 02:21:43;;;;;;;;;;;;;;;;;;5104977;28;19896;-92
2021/06/12 02:24:09;;;;;;;;;;;;;;;;;;5117703;28;19943;-94
2021/06/12 02:26:35;;;;;;;;;;;;;;;;;;5110517;28;19980;-92
2021/06/12 02:29:00;;;;;;;;;;;;;;;;;;5097220;28;19909;-93
2021/06/12 02:31:26;;;;;;;;;;;;;;;;;;5116566;28;19942;-93
2021/06/12 02:33:52;;;;;;;;;;;;;;;;;;5109834;28;19916;-94
2021/06/12 02:36:19;;;;;;;;;;;;;;;;;;5090796;28;20360;-94
2021/06/12 02:38:45;;;;;;;;;;;;;;;;;;5115505;28;19948;-95
2021/06/12 02:41:11;;;;;;;;;;;;;;;;;;5078674;28;19943;-93
2021/06/12 02:43:37;;;;;;;;;;;;;;;;;;5090608;28;19944;-93
2021/06/12 02:46:03;;;;;;;;;;;;;;;;;;5120359;28;19929;-94
2021/06/12 02:48:29;;;;;;;;;;;;;;;;;;5108354;28;19909;-94
2021/06/12 02:50:54;;;;;;;;;;;;;;;;;;5095100;28;20007;-93
2021/06/12 02:53:20;;;;;;;;;;;;;;;;;;5087211;28;19909;-94
2021/06/12 02:55:46;;;;;;;;;;;;;;;;;;5104569;28;19940;-95
2021/06/12 02:58:12;;;;;;;;;;;;;;;;;;5081419;28;19909;-95
2021/06/12 03:00:38;;;;;;;;;;;;;;;;;;5097635;28;20397;-93
2021/06/12 03:03:04;;;;;;;;;;;;;;;;;;5099562;28;19915;-94
2021/06/12 03:05:30;;;;;;;;;;;;;;;;;;5092821;28;20018;-94
2021/06/12 03:07:55;;;;;;;;;;;;;;;;;;5099666;28;19912;-94
2021/06/12 03:10:21;;;;;;;;;;;;;;;;;;5094821;28;20271;-94
2021/06/12 03:12:47;;;;;;;;;;;;;;;;;;5099683;28;19912;-93
2021/06/12 03:15:13;;;;;;;;;;;;;;;;;;5108057;28;19924;-91
2021/06/12 03:17:39;;;;;;;;;;;;;;;;;;5111223;28;20000;-94
2021/06/12 03:20:05;;;;;;;;;;;;;;;;;;5111177;28;19920;-94
2021/06/12 03:22:31;;;;;;;;;;;;;;;;;;5101036;28;19908;-94
2021/06/12 03:24:57;;;;;;;;;;;;;;;;;;5086974;28;19912;-93
2021/06/12 03:27:22;;;;;;;;;;;;;;;;;;5102687;28;19913;-93
2021/06/12 03:29:48;;;;;;;;;;;;;;;;;;5099547;28;19912;-94
2021/06/12 03:32:14;;;;;;;;;;;;;;;;;;5098047;28;19896;-94
2021/06/12 03:34:40;;;;;;;;;;;;;;;;;;5085038;28;19969;-94
2021/06/12 03:37:06;;;;;;;;;;;;;;;;;;5112022;28;19912;-93
2021/06/12 03:39:32;;;;;;;;;;;;;;;;;;5114804;28;19951;-94
2021/06/12 03:41:58;;;;;;;;;;;;;;;;;;5115222;28;19908;-93
2021/06/12 03:44:24;;;;;;;;;;;;;;;;;;5111699;28;19912;-94
2021/06/12 03:46:50;;;;;;;;;;;;;;;;;;5099885;28;19932;-93
2021/06/12 03:49:16;;;;;;;;;;;;;;;;;;5113722;28;20395;-93
2021/06/12 03:51:41;;;;;;;;;;;;;;;;;;5088441;28;19908;-93
2021/06/12 03:54:08;;;;;;;;;;;;;;;;;;5123522;27;20272;-93
2021/06/12 03:56:34;;;;;;;;;;;;;;;;;;5103854;28;19955;-93
2021/06/12 03:58:59;;;;;;;;;;;;;;;;;;5092166;28;20349;-94
2021/06/12 04:01:25;;;;;;;;;;;;;;;;;;5112850;28;19912;-94
2021/06/12 04:03:51;;;;;;;;;;;;;;;;;;5110001;28;19908;-93
2021/06/12 04:06:17;;;;;;;;;;;;;;;;;;5104539;28;19990;-95
2021/06/12 04:08:43;;;;;;;;;;;;;;;;;;5097548;28;19916;-94
2021/06/12 04:11:09;;;;;;;;;;;;;;;;;;5105877;28;19999;-94
2021/06/12 04:13:35;;;;;;;;;;;;;;;;;;5111926;28;19908;-94
2021/06/12 04:16:01;;;;;;;;;;;;;;;;;;5121422;28;19912;-94
2021/06/12 04:18:27;;;;;;;;;;;;;;;;;;5116292;28;19915;-93
2021/06/12 04:20:52;;;;;;;;;;;;;;;;;;5116790;28;19963;-94
2021/06/12 04:23:18;;;;;;;;;;;;;;;;;;5107300;28;19914;-94
2021/06/12 04:25:44;;;;;;;;;;;;;;;;;;5108539;28;19946;-94
2021/06/12 04:28:10;;;;;;;;;;;;;;;;;;5114017;28;19968;-94
2021/06/12 04:30:36;;;;;;;;;;;;;;;;;;5109538;28;19920;-94
2021/06/12 04:33:02;;;;;;;;;;;;;;;;;;5104002;28;19908;-94
2021/06/12 04:35:28;;;;;;;;;;;;;;;;;;5086347;28;19946;-93
2021/06/12 04:37:56;;;;;;;;;;;;;;;;;;5104857;28;19908;-93
2021/06/12 04:40:21;;;;;;;;;;;;;;;;;;5099691;28;20308;-94
2021/06/12 04:42:47;;;;;;;;;;;;;;;;;;5100985;28;19908;-92
2021/06/12 04:45:13;;;;;;;;;;;;;;;;;;5112621;28;19909;-93
2021/06/12 04:47:39;;;;;;;;;;;;;;;;;;5110134;28;19915;-94
2021/06/12 04:50:05;;;;;;;;;;;;;;;;;;5098034;28;20352;-94
2021/06/12 04:52:31;;;;;;;;;;;;;;;;;;5111803;28;19916;-93
2021/06/12 04:54:57;;;;;;;;;;;;;;;;;;5124356;28;19916;-94
2021/06/12 04:57:23;;;;;;;;;;;;;;;;;;5098334;27;19961;-94
2021/06/12 04:59:49;;;;;;;;;;;;;;;;;;5098926;28;19970;-93
2021/06/12 05:02:15;;;;;;;;;;;;;;;;;;5107975;28;19908;-93
2021/06/12 05:04:40;;;;;;;;;;;;;;;;;;5107323;28;19908;-91
2021/06/12 05:07:06;;;;;;;;;;;;;;;;;;5105067;28;20020;-92
2021/06/12 05:09:32;;;;;;;;;;;;;;;;;;5096165;28;19948;-93
2021/06/12 05:11:58;;;;;;;;;;;;;;;;;;5088443;28;19980;-92
2021/06/12 05:14:24;;;;;;;;;;;;;;;;;;5078488;28;19908;-92
2021/06/12 05:16:50;;;;;;;;;;;;;;;;;;5086631;28;19951;-92
2021/06/12 05:19:16;;;;;;;;;;;;;;;;;;5113341;28;20010;-92
2021/06/12 05:21:42;;;;;;;;;;;;;;;;;;5106038;28;19923;-92
2021/06/12 05:24:07;;;;;;;;;;;;;;;;;;5110984;28;20013;-92
2021/06/12 05:26:33;;;;;;;;;;;;;;;;;;5104323;28;19935;-92
2021/06/12 05:28:59;;;;;;;;;;;;;;;;;;5093566;28;20341;-94
2021/06/12 05:31:25;;;;;;;;;;;;;;;;;;5092722;28;19970;-93
2021/06/12 05:33:51;;;;;;;;;;;;;;;;;;5121217;28;19946;-93
2021/06/12 05:36:17;;;;;;;;;;;;;;;;;;5109920;28;20340;-94
2021/06/12 05:38:43;;;;;;;;;;;;;;;;;;5094698;28;19920;-95
2021/06/12 05:41:09;;;;;;;;;;;;;;;;;;5104380;28;19928;-94
2021/06/12 05:43:35;;;;;;;;;;;;;;;;;;5114396;28;19908;-94
2021/06/12 05:46:02;;;;;;;;;;;;;;;;;;5124417;28;19947;-94
2021/06/12 05:48:27;;;;;;;;;;;;;;;;;;5091713;28;19915;-94
2021/06/12 05:50:53;;;;;;;;;;;;;;;;;;5076986;28;19912;-93
2021/06/12 05:53:19;;;;;;;;;;;;;;;;;;5090377;28;19908;-94
2021/06/12 05:55:45;;;;;;;;;;;;;;;;;;5117091;28;19953;-94
2021/06/12 05:58:11;;;;;;;;;;;;;;;;;;5125736;28;19919;-94
2021/06/12 06:00:37;;;;;;;;;;;;;;;;;;5096693;28;19988;-94
2021/06/12 06:03:03;;;;;;;;;;;;;;;;;;5095478;28;20003;-94
2021/06/12 06:05:28;;;;;;;;;;;;;;;;;;5098398;28;19916;-94
2021/06/12 06:07:55;;;;;;;;;;;;;;;;;;5130372;28;19908;-94
2021/06/12 06:10:20;;;;;;;;;;;;;;;;;;5102768;28;19892;-94
2021/06/12 06:12:47;;;;;;;;;;;;;;;;;;5094714;28;19912;-93
2021/06/12 06:15:12;;;;;;;;;;;;;;;;;;5101649;28;19958;-92
2021/06/12 06:17:38;;;;;;;;;;;;;;;;;;5113352;28;19915;-93
2021/06/12 06:20:04;;;;;;;;;;;;;;;;;;5096113;28;19958;-93
2021/06/12 06:22:30;;;;;;;;;;;;;;;;;;5094136;28;19943;-93
2021/06/12 06:24:56;;;;;;;;;;;;;;;;;;5093794;28;20287;-93
2021/06/12 06:27:22;;;;;;;;;;;;;;;;;;5088867;28;19914;-93
2021/06/12 06:29:48;;;;;;;;;;;;;;;;;;5099756;28;19915;-93
2021/06/12 06:32:14;;;;;;;;;;;;;;;;;;5093643;28;19913;-93
2021/06/12 06:34:39;;;;;;;;;;;;;;;;;;5101796;28;20327;-92
2021/06/12 06:37:05;;;;;;;;;;;;;;;;;;5096842;28;19968;-92
2021/06/12 06:39:31;;;;;;;;;;;;;;;;;;5093316;28;20294;-92
2021/06/12 06:41:57;;;;;;;;;;;;;;;;;;5087564;28;19912;-93
2021/06/12 06:44:23;;;;;;;;;;;;;;;;;;5093846;28;19920;-92
2021/06/12 06:46:49;;;;;;;;;;;;;;;;;;5100839;28;20201;-92
2021/06/12 06:49:15;;;;;;;;;;;;;;;;;;5098205;28;19912;-92
2021/06/12 06:51:41;;;;;;;;;;;;;;;;;;5093889;28;20371;-93
2021/06/12 06:54:07;;;;;;;;;;;;;;;;;;5094399;28;19900;-93
2021/06/12 06:56:32;;;;;;;;;;;;;;;;;;5088068;28;19923;-93
2021/06/12 06:58:58;;;;;;;;;;;;;;;;;;5092242;28;19920;-93
2021/06/12 07:01:26;;;;;;;;;;;;;;;;;;5092941;28;20362;-93
2021/06/12 07:03:52;;;;;;;;;;;;;;;;;;5095924;28;19916;-93
2021/06/12 07:06:18;;;;;;;;;;;;;;;;;;5094366;28;20372;-92
2021/06/12 07:08:44;;;;;;;;;;;;;;;;;;5100593;28;20446;-92
2021/06/12 07:11:10;;;;;;;;;;;;;;;;;;5097149;28;19920;-94
2021/06/12 07:13:36;;;;;;;;;;;;;;;;;;5108888;28;19930;-91
2021/06/12 07:16:02;;;;;;;;;;;;;;;;;;5097351;28;19912;-91
2021/06/12 07:18:27;;;;;;;;;;;;;;;;;;5095018;28;20399;-93
2021/06/12 07:20:53;;;;;;;;;;;;;;;;;;5086145;28;19959;-91
2021/06/12 07:23:19;;;;;;;;;;;;;;;;;;5089279;28;19908;-92
2021/06/12 07:25:45;;;;;;;;;;;;;;;;;;5087143;28;19935;-93
2021/06/12 07:28:11;;;;;;;;;;;;;;;;;;5085015;28;19919;-93
2021/06/12 07:30:41;;;;;;;;;;;;;;;;;;5099588;28;19965;-93
2021/06/12 07:33:07;;;;;;;;;;;;;;;;;;5099793;28;19999;-90
2021/06/12 07:35:32;;;;;;;;;;;;;;;;;;5100729;28;19966;-91
2021/06/12 07:37:58;;;;;;;;;;;;;;;;;;5104879;28;19912;-91
2021/06/12 07:40:24;;;;;;;;;;;;;;;;;;5094529;28;20280;-88
2021/06/12 07:42:50;;;;;;;;;;;;;;;;;;5093531;28;19919;-86
2021/06/12 07:45:16;;;;;;;;;;;;;;;;;;5092125;28;19912;-88
2021/06/12 07:47:42;;;;;;;;;;;;;;;;;;5097205;28;20381;-88
2021/06/12 07:50:08;;;;;;;;;;;;;;;;;;5099972;28;19908;-87
2021/06/12 07:52:34;;;;;;;;;;;;;;;;;;5101550;28;19995;-86
2021/06/12 07:55:00;;;;;;;;;;;;;;;;;;5093270;28;19912;-88
2021/06/12 07:57:25;;;;;;;;;;;;;;;;;;5088201;28;19920;-87
2021/06/12 07:59:51;;;;;;;;;;;;;;;;;;5102890;28;19931;-91
2021/06/12 08:02:17;;;;;;;;;;;;;;;;;;5082977;28;20386;-90
2021/06/12 08:04:43;;;;;;;;;;;;;;;;;;5106572;28;19939;-91
2021/06/12 08:07:09;;;;;;;;;;;;;;;;;;5091179;28;19912;-90
2021/06/12 08:09:35;;;;;;;;;;;;;;;;;;5099953;28;20280;-92
2021/06/12 08:12:01;;;;;;;;;;;;;;;;;;5095584;28;19912;-91
2021/06/12 08:14:27;;;;;;;;;;;;;;;;;;5092572;28;19935;-92
2021/06/12 08:16:53;;;;;;;;;;;;;;;;;;5105821;28;19908;-91
2021/06/12 08:19:19;;;;;;;;;;;;;;;;;;5095721;28;19915;-91
2021/06/12 08:21:46;;;;;;;;;;;;;;;;;;5092923;28;20007;-91
2021/06/12 08:24:12;;;;;;;;;;;;;;;;;;5102114;28;19912;-91
2021/06/12 08:26:37;;;;;;;;;;;;;;;;;;5108099;28;19916;-91
2021/06/12 08:29:03;;;;;;;;;;;;;;;;;;5088141;28;19954;-91
2021/06/12 08:31:29;;;;;;;;;;;;;;;;;;5101795;28;19908;-90
2021/06/12 08:33:55;;;;;;;;;;;;;;;;;;5092194;28;19919;-89
2021/06/12 08:36:21;;;;;;;;;;;;;;;;;;5100852;28;20315;-93
2021/06/12 08:38:47;;;;;;;;;;;;;;;;;;5087801;28;19908;-91
2021/06/12 08:41:13;;;;;;;;;;;;;;;;;;5095550;28;19969;-92
2021/06/12 08:43:39;;;;;;;;;;;;;;;;;;5116137;28;19908;-92
2021/06/12 08:46:05;;;;;;;;;;;;;;;;;;5096864;28;19912;-91
2021/06/12 08:48:30;;;;;;;;;;;;;;;;;;5103124;28;19947;-92
2021/06/12 08:50:57;;;;;;;;;;;;;;;;;;5105017;28;19918;-92
2021/06/12 08:53:23;;;;;;;;;;;;;;;;;;5099403;28;19932;-92
2021/06/12 08:55:49;;;;;;;;;;;;;;;;;;5100752;28;19915;-92
2021/06/12 08:58:15;;;;;;;;;;;;;;;;;;5099586;28;19908;-91
2021/06/12 09:00:40;;;;;;;;;;;;;;;;;;5109096;28;19920;-91
2021/06/12 09:03:07;;;;;;;;;;;;;;;;;;5103184;28;20203;-91
2021/06/12 09:05:33;;;;;;;;;;;;;;;;;;5075536;28;19912;-91
2021/06/12 09:07:58;;;;;;;;;;;;;;;;;;5107971;28;19914;-92
2021/06/12 09:10:24;;;;;;;;;;;;;;;;;;5097086;28;19953;-91
2021/06/12 09:12:50;;;;;;;;;;;;;;;;;;5093388;28;19911;-92
2021/06/12 09:15:16;;;;;;;;;;;;;;;;;;5098254;28;19919;-91
2021/06/12 09:17:42;;;;;;;;;;;;;;;;;;5090558;28;19913;-92
2021/06/12 09:20:08;;;;;;;;;;;;;;;;;;5109124;28;19926;-92
2021/06/12 09:22:34;;;;;;;;;;;;;;;;;;5098699;28;19912;-92
2021/06/12 09:25:00;;;;;;;;;;;;;;;;;;5091087;28;19955;-92
2021/06/12 09:27:26;;;;;;;;;;;;;;;;;;5080157;28;20354;-92
2021/06/12 09:29:52;;;;;;;;;;;;;;;;;;5109148;28;19908;-93
2021/06/12 09:32:18;;;;;;;;;;;;;;;;;;5108068;28;19912;-93
2021/06/12 09:34:44;;;;;;;;;;;;;;;;;;5103825;28;20319;-92
2021/06/12 09:37:10;;;;;;;;;;;;;;;;;;5105696;28;19912;-91
2021/06/12 09:39:35;;;;;;;;;;;;;;;;;;5098975;28;20027;-93
2021/06/12 09:42:01;;;;;;;;;;;;;;;;;;5105782;28;20287;-93
2021/06/12 09:44:27;;;;;;;;;;;;;;;;;;5111131;28;19908;-92
2021/06/12 09:46:53;;;;;;;;;;;;;;;;;;5110614;28;19908;-95
2021/06/12 09:49:19;;;;;;;;;;;;;;;;;;5111432;28;19918;-93
2021/06/12 09:51:45;;;;;;;;;;;;;;;;;;5107824;28;19931;-93
2021/06/12 09:54:11;;;;;;;;;;;;;;;;;;5110495;28;19918;-93
2021/06/12 09:56:37;;;;;;;;;;;;;;;;;;5101264;28;19908;-91
2021/06/12 09:59:03;;;;;;;;;;;;;;;;;;5090344;28;20318;-93
2021/06/12 10:01:29;;;;;;;;;;;;;;;;;;5123113;28;19916;-94
2021/06/12 10:03:55;;;;;;;;;;;;;;;;;;5113022;28;19916;-93
2021/06/12 10:06:23;;;;;;;;;;;;;;;;;;5096509;28;19959;-93
2021/06/12 10:08:49;;;;;;;;;;;;;;;;;;5094845;28;19914;-92
2021/06/12 10:11:15;;;;;;;;;;;;;;;;;;5105246;28;19908;-93
2021/06/12 10:13:41;;;;;;;;;;;;;;;;;;5111887;28;19908;-94
2021/06/12 10:16:07;;;;;;;;;;;;;;;;;;5112144;28;19908;-93
2021/06/12 10:18:33;;;;;;;;;;;;;;;;;;5101662;28;19967;-90
2021/06/12 10:20:59;;;;;;;;;;;;;;;;;;5094682;28;19920;-90
2021/06/12 10:23:25;;;;;;;;;;;;;;;;;;5104444;28;19975;-90
2021/06/12 10:25:51;;;;;;;;;;;;;;;;;;5111442;28;19929;-90
2021/06/12 10:28:16;;;;;;;;;;;;;;;;;;5107080;28;19908;-90
2021/06/12 10:30:44;;;;;;;;;;;;;;;;;;5100429;28;19940;-90
2021/06/12 10:33:10;;;;;;;;;;;;;;;;;;5093966;28;19934;-90
2021/06/12 10:35:36;;;;;;;;;;;;;;;;;;5099956;28;19908;-90
2021/06/12 10:38:02;;;;;;;;;;;;;;;;;;5111755;28;19916;-89
2021/06/12 10:40:28;;;;;;;;;;;;;;;;;;5105197;28;19995;-90
2021/06/12 10:42:53;;;;;;;;;;;;;;;;;;5099509;28;19920;-90
2021/06/12 10:45:19;;;;;;;;;;;;;;;;;;5097086;28;19995;-90
2021/06/12 10:47:49;;;;;;;;;;;;;;;;;;5092783;28;20344;-90
2021/06/12 10:50:15;;;;;;;;;;;;;;;;;;5094078;28;20677;-90
2021/06/12 10:52:41;;;;;;;;;;;;;;;;;;5106808;28;19908;-89
2021/06/12 10:55:07;;;;;;;;;;;;;;;;;;5109757;28;20364;-89
2021/06/12 10:57:33;;;;;;;;;;;;;;;;;;5091700;28;19923;-89
2021/06/12 10:59:58;;;;;;;;;;;;;;;;;;5100743;28;19920;-89
2021/06/12 11:02:42;;;;;;;;;;;;;;;;;;5106025;28;19952;-88
2021/06/12 11:05:10;;;;;;;;;;;;;;;;;;5104524;28;19908;-89
2021/06/12 11:07:36;;;;;;;;;;;;;;;;;;5099575;28;19904;-89
2021/06/12 11:10:02;;;;;;;;;;;;;;;;;;5107680;28;19995;-89
2021/06/12 11:12:30;;;;;;;;;;;;;;;;;;5112020;28;19976;-89
2021/06/12 11:14:56;;;;;;;;;;;;;;;;;;5108490;28;20009;-88
2021/06/12 11:17:22;;;;;;;;;;;;;;;;;;5111692;28;19964;-89
2021/06/12 11:19:48;;;;;;;;;;;;;;;;;;5116801;28;19974;-89
2021/06/12 11:22:14;;;;;;;;;;;;;;;;;;5113205;28;19963;-90
2021/06/12 11:24:41;;;;;;;;;;;;;;;;;;5103746;28;19927;-88
2021/06/12 11:27:07;;;;;;;;;;;;;;;;;;5112325;28;19962;-89
2021/06/12 11:29:32;;;;;;;;;;;;;;;;;;5111827;28;19905;-91
2021/06/12 11:31:58;;;;;;;;;;;;;;;;;;5105356;28;19916;-90
2021/06/12 11:34:25;;;;;;;;;;;;;;;;;;5079825;28;19972;-89
2021/06/12 11:36:50;;;;;;;;;;;;;;;;;;5101218;28;19908;-92
2021/06/12 11:39:16;;;;;;;;;;;;;;;;;;5098941;28;19916;-91
2021/06/12 11:41:42;;;;;;;;;;;;;;;;;;5094514;28;19912;-93
2021/06/12 11:44:08;;;;;;;;;;;;;;;;;;5092054;28;20007;-92
2021/06/12 11:46:34;;;;;;;;;;;;;;;;;;5094923;28;19909;-92
2021/06/12 11:49:00;;;;;;;;;;;;;;;;;;5095812;28;19934;-93
2021/06/12 11:51:28;;;;;;;;;;;;;;;;;;5096248;28;19912;-92
2021/06/12 11:53:53;;;;;;;;;;;;;;;;;;5102427;28;19912;-93
2021/06/12 11:56:19;;;;;;;;;;;;;;;;;;5104405;28;19932;-90
2021/06/12 11:58:45;;;;;;;;;;;;;;;;;;5109311;28;19946;-89
2021/06/12 12:01:11;;;;;;;;;;;;;;;;;;5093770;28;20364;-90
2021/06/12 12:03:37;;;;;;;;;;;;;;;;;;5100023;28;19912;-90
2021/06/12 12:06:03;;;;;;;;;;;;;;;;;;5087931;28;19923;-90
2021/06/12 12:08:29;;;;;;;;;;;;;;;;;;5094642;28;19912;-90
2021/06/12 12:10:54;;;;;;;;;;;;;;;;;;5096478;28;19908;-90
2021/06/12 12:13:20;;;;;;;;;;;;;;;;;;5102082;28;19931;-90
2021/06/12 12:15:47;;;;;;;;;;;;;;;;;;5104490;28;19924;-89
2021/06/12 12:18:13;;;;;;;;;;;;;;;;;;5098627;28;19912;-90
2021/06/12 12:20:39;;;;;;;;;;;;;;;;;;5111341;28;19923;-89
2021/06/12 12:23:04;;;;;;;;;;;;;;;;;;5098155;28;19908;-91
2021/06/12 12:25:33;;;;;;;;;;;;;;;;;;5092792;28;20349;-91
2021/06/12 12:27:59;;;;;;;;;;;;;;;;;;5102329;28;20432;-90
2021/06/12 12:30:25;;;;;;;;;;;;;;;;;;5114683;28;19908;-91
2021/06/12 12:32:51;;;;;;;;;;;;;;;;;;5113240;28;19908;-91
2021/06/12 12:35:16;;;;;;;;;;;;;;;;;;5101795;28;19924;-90
2021/06/12 12:37:42;;;;;;;;;;;;;;;;;;5107567;28;19919;-90
2021/06/12 12:40:08;;;;;;;;;;;;;;;;;;5113119;28;19923;-89
2021/06/12 12:42:36;;;;;;;;;;;;;;;;;;5094916;28;20314;-90
2021/06/12 12:45:02;;;;;;;;;;;;;;;;;;5088650;28;19975;-89
2021/06/12 12:47:28;;;;;;;;;;;;;;;;;;5092763;28;19913;-89
2021/06/12 12:49:54;;;;;;;;;;;;;;;;;;5103400;28;19913;-89
2021/06/12 12:52:20;;;;;;;;;;;;;;;;;;5107235;28;19916;-88
2021/06/12 12:54:46;;;;;;;;;;;;;;;;;;5109267;28;19912;-89
2021/06/12 12:57:12;;;;;;;;;;;;;;;;;;5108470;28;20006;-89
2021/06/12 12:59:38;;;;;;;;;;;;;;;;;;5098493;28;19935;-90
2021/06/12 13:02:07;;;;;;;;;;;;;;;;;;5093260;28;20360;-89
2021/06/12 13:04:33;;;;;;;;;;;;;;;;;;5105687;28;20356;-90
2021/06/12 13:06:59;;;;;;;;;;;;;;;;;;5099403;28;19985;-87
2021/06/12 13:09:25;;;;;;;;;;;;;;;;;;5102540;28;19912;-89
2021/06/12 13:11:58;;;;;;;;;;;;;;;;;;5095080;28;19912;-90
2021/06/12 13:14:24;;;;;;;;;;;;;;;;;;5086619;28;19916;-90
2021/06/12 13:16:50;;;;;;;;;;;;;;;;;;5080943;28;20487;-88
2021/06/12 13:19:16;;;;;;;;;;;;;;;;;;5094739;28;19941;-88
2021/06/12 13:21:42;;;;;;;;;;;;;;;;;;5094331;28;19935;-87
2021/06/12 13:24:08;;;;;;;;;;;;;;;;;;5091161;28;19920;-87
2021/06/12 13:26:33;;;;;;;;;;;;;;;;;;5099253;28;19976;-87
2021/06/12 13:28:59;;;;;;;;;;;;;;;;;;5105055;28;19908;-87
2021/06/12 13:31:25;;;;;;;;;;;;;;;;;;5130757;27;19937;-89
2021/06/12 13:33:51;;;;;;;;;;;;;;;;;;5095401;28;19912;-88
2021/06/12 13:36:17;;;;;;;;;;;;;;;;;;5093098;28;19916;-87
2021/06/12 13:38:47;;;;;;;;;;;;;;;;;;5103601;28;20351;-88
2021/06/12 13:41:13;;;;;;;;;;;;;;;;;;5108329;28;20268;-87
2021/06/12 13:43:39;;;;;;;;;;;;;;;;;;5096264;28;20081;-87
2021/06/12 13:46:04;;;;;;;;;;;;;;;;;;5089291;28;19961;-88
2021/06/12 13:48:30;;;;;;;;;;;;;;;;;;5092657;28;20390;-88
2021/06/12 13:50:56;;;;;;;;;;;;;;;;;;5091820;28;19916;-88
2021/06/12 13:53:22;;;;;;;;;;;;;;;;;;5092661;28;19934;-88
2021/06/12 13:55:49;;;;;;;;;;;;;;;;;;5108065;28;19908;-87
2021/06/12 13:58:15;;;;;;;;;;;;;;;;;;5101540;28;19915;-87
2021/06/12 14:00:41;;;;;;;;;;;;;;;;;;5092713;28;19943;-88
2021/06/12 14:03:07;;;;;;;;;;;;;;;;;;5090760;28;20363;-88
2021/06/12 14:05:33;;;;;;;;;;;;;;;;;;5089476;28;19927;-88
2021/06/12 14:07:59;;;;;;;;;;;;;;;;;;5105842;28;19948;-88
2021/06/12 14:10:26;;;;;;;;;;;;;;;;;;5093232;28;20272;-88
2021/06/12 14:12:52;;;;;;;;;;;;;;;;;;5097585;28;19923;-88
2021/06/12 14:15:18;;;;;;;;;;;;;;;;;;5086520;28;19912;-88
2021/06/12 14:17:44;;;;;;;;;;;;;;;;;;5095458;28;19959;-88
2021/06/12 14:20:10;;;;;;;;;;;;;;;;;;5096696;28;19935;-87
2021/06/12 14:22:36;;;;;;;;;;;;;;;;;;5096434;28;20464;-88
2021/06/12 14:25:02;;;;;;;;;;;;;;;;;;5096840;28;20249;-88
2021/06/12 14:27:30;;;;;;;;;;;;;;;;;;5093224;28;19912;-91
2021/06/12 14:29:56;;;;;;;;;;;;;;;;;;5090286;28;19912;-91
2021/06/12 14:32:22;;;;;;;;;;;;;;;;;;5075917;28;20567;-91
2021/06/12 14:34:48;;;;;;;;;;;;;;;;;;5078549;28;19956;-91
2021/06/12 14:37:14;;;;;;;;;;;;;;;;;;5109616;28;19916;-91
2021/06/12 14:39:41;;;;;;;;;;;;;;;;;;5091118;28;20088;-91
2021/06/12 14:42:07;;;;;;;;;;;;;;;;;;5100907;28;19923;-91
2021/06/12 14:44:33;;;;;;;;;;;;;;;;;;5106168;28;19908;-90
2021/06/12 14:46:59;;;;;;;;;;;;;;;;;;5111780;28;19908;-90
2021/06/12 14:49:25;;;;;;;;;;;;;;;;;;5102475;28;19915;-91
2021/06/12 14:51:50;;;;;;;;;;;;;;;;;;5092919;28;19912;-91
2021/06/12 14:54:16;;;;;;;;;;;;;;;;;;5092411;28;20279;-91
2021/06/12 14:56:42;;;;;;;;;;;;;;;;;;5105886;28;20407;-91
2021/06/12 14:59:08;;;;;;;;;;;;;;;;;;5105134;28;19951;-90
2021/06/12 15:01:34;;;;;;;;;;;;;;;;;;5100540;28;20529;-90
2021/06/12 15:04:00;;;;;;;;;;;;;;;;;;5107380;28;19912;-89
2021/06/12 15:06:27;;;;;;;;;;;;;;;;;;5089918;28;19918;-91
2021/06/12 15:08:53;;;;;;;;;;;;;;;;;;5105044;28;19920;-91
2021/06/12 15:11:19;;;;;;;;;;;;;;;;;;5101225;28;19908;-90
2021/06/12 15:13:45;;;;;;;;;;;;;;;;;;5131117;27;19971;-92
2021/06/12 15:16:11;;;;;;;;;;;;;;;;;;5080343;28;19909;-92
2021/06/12 15:18:36;;;;;;;;;;;;;;;;;;5097624;28;19920;-91
2021/06/12 15:21:02;;;;;;;;;;;;;;;;;;5103987;28;19979;-91
2021/06/12 15:23:28;;;;;;;;;;;;;;;;;;5114626;28;19918;-90
2021/06/12 15:25:54;;;;;;;;;;;;;;;;;;5119114;28;19908;-90
2021/06/12 15:28:21;;;;;;;;;;;;;;;;;;5119884;28;19947;-90
2021/06/12 15:30:47;;;;;;;;;;;;;;;;;;5105955;28;19919;-90
2021/06/12 15:33:13;;;;;;;;;;;;;;;;;;5097830;28;19916;-90
2021/06/12 15:35:39;;;;;;;;;;;;;;;;;;5123323;28;19961;-89
2021/06/12 15:38:05;;;;;;;;;;;;;;;;;;5106413;28;19908;-91
2021/06/12 15:40:31;;;;;;;;;;;;;;;;;;5106524;28;20275;-90
2021/06/12 15:42:57;;;;;;;;;;;;;;;;;;5104895;28;19919;-90
2021/06/12 15:45:22;;;;;;;;;;;;;;;;;;5099869;28;19972;-90
2021/06/12 15:47:48;;;;;;;;;;;;;;;;;;5081885;28;19908;-90
2021/06/12 15:50:14;;;;;;;;;;;;;;;;;;5098870;28;19912;-90
2021/06/12 15:52:40;;;;;;;;;;;;;;;;;;5103955;28;19914;-89
2021/06/12 15:55:06;;;;;;;;;;;;;;;;;;5099470;28;19908;-91
2021/06/12 15:57:32;;;;;;;;;;;;;;;;;;5121311;28;19915;-88
2021/06/12 15:59:58;;;;;;;;;;;;;;;;;;5099037;28;19927;-89
2021/06/12 16:02:24;;;;;;;;;;;;;;;;;;5092852;28;19940;-88
2021/06/12 16:04:50;;;;;;;;;;;;;;;;;;5100655;28;19915;-88
2021/06/12 16:07:16;;;;;;;;;;;;;;;;;;5109696;28;19922;-88
2021/06/12 16:09:42;;;;;;;;;;;;;;;;;;5109670;28;19952;-88
2021/06/12 16:12:08;;;;;;;;;;;;;;;;;;5108690;28;19951;-88
2021/06/12 16:14:34;;;;;;;;;;;;;;;;;;5103324;28;19909;-88
2021/06/12 16:17:00;;;;;;;;;;;;;;;;;;5089533;28;19934;-87
2021/06/12 16:19:30;;;;;;;;;;;;;;;;;;5108180;28;19908;-88
2021/06/12 16:21:56;;;;;;;;;;;;;;;;;;5099671;28;20028;-87
2021/06/12 16:24:22;;;;;;;;;;;;;;;;;;5105714;28;20288;-88
2021/06/12 16:26:48;;;;;;;;;;;;;;;;;;5100683;28;19919;-88
2021/06/12 16:29:14;;;;;;;;;;;;;;;;;;5106347;28;19947;-87
2021/06/12 16:31:39;;;;;;;;;;;;;;;;;;5111218;28;20315;-87
2021/06/12 16:34:05;;;;;;;;;;;;;;;;;;5104521;28;20299;-88
2021/06/12 16:36:32;;;;;;;;;;;;;;;;;;5104081;28;19913;-88